Time;durP1;ratioP1;P1;durP2;ratioP2;P2;SDS_P1;SDS_P2;PMS_P1;PMS_P2;Temp;Humidity;BMP_temperature;BMP_pressure;BME280_temperature;BME280_humidity;BME280_pressure;Samples;Min_cycle;Max_cycle;Signal;HPM_P1;HPM_P2
2023/03/25 00:00:20;;;;;;;24.50;3.90;;;9.20;99.90;;;;;;5047389;28;20056;-44
2023/03/25 00:02:51;;;;;;;27.60;3.65;;;9.10;99.90;;;;;;5043570;28;20021;-44
2023/03/25 00:05:18;;;;;;;25.60;3.85;;;9.10;99.90;;;;;;5047488;28;20069;-43
2023/03/25 00:07:45;;;;;;;27.55;3.70;;;9.10;99.90;;;;;;5043385;28;20549;-48
2023/03/25 00:10:12;;;;;;;31.88;4.40;;;9.00;99.90;;;;;;5047467;28;20021;-45
2023/03/25 00:12:39;;;;;;;23.95;3.83;;;9.00;99.90;;;;;;5020691;28;20021;-46
2023/03/25 00:15:06;;;;;;;25.95;3.72;;;9.00;99.90;;;;;;5046126;28;20436;-44
2023/03/25 00:17:32;;;;;;;24.70;3.72;;;9.00;99.90;;;;;;5045974;28;20028;-43
2023/03/25 00:19:59;;;;;;;16.73;2.75;;;8.90;99.90;;;;;;5008817;28;20096;-45
2023/03/25 00:22:25;;;;;;;26.77;3.08;;;8.90;99.90;;;;;;5011652;28;20022;-44
2023/03/25 00:24:51;;;;;;;20.25;3.63;;;8.90;99.90;;;;;;5009237;28;20099;-44
2023/03/25 00:27:17;;;;;;;29.25;3.28;;;8.90;99.90;;;;;;4998761;28;20026;-44
2023/03/25 00:29:44;;;;;;;18.75;3.35;;;8.90;99.90;;;;;;5011567;28;20029;-43
2023/03/25 00:32:11;;;;;;;30.20;3.35;;;8.90;99.90;;;;;;5011435;28;20029;-43
2023/03/25 00:34:45;;;;;;;27.80;3.83;;;8.90;99.90;;;;;;5011647;28;20026;-45
2023/03/25 00:37:20;;;;;;;25.33;3.83;;;8.90;99.90;;;;;;5007567;28;20038;-43
2023/03/25 00:39:46;;;;;;;23.80;3.38;;;8.90;99.90;;;;;;5008125;28;20034;-44
2023/03/25 00:42:15;;;;;;;37.28;4.07;;;8.90;99.90;;;;;;5004253;28;20065;-43
2023/03/25 00:44:41;;;;;;;21.38;3.47;;;8.90;99.90;;;;;;5009691;28;20632;-45
2023/03/25 00:47:06;;;;;;;20.85;3.70;;;9.00;99.90;;;;;;5003030;28;20022;-47
2023/03/25 00:49:32;;;;;;;23.70;4.13;;;8.90;99.90;;;;;;5011175;28;20029;-45
2023/03/25 00:51:58;;;;;;;24.58;3.92;;;9.00;99.90;;;;;;5010917;28;20030;-43
2023/03/25 00:54:23;;;;;;;19.15;3.08;;;9.00;99.90;;;;;;5010957;28;20029;-47
2023/03/25 00:56:51;;;;;;;20.88;3.55;;;9.00;99.90;;;;;;5010928;28;20105;-46
2023/03/25 00:59:17;;;;;;;20.52;4.03;;;9.00;99.90;;;;;;5010473;28;20026;-44
2023/03/25 01:01:44;;;;;;;27.35;3.63;;;9.10;99.90;;;;;;5010907;28;20446;-44
2023/03/25 01:04:11;;;;;;;15.27;2.60;;;9.00;99.90;;;;;;5010343;28;20080;-45
2023/03/25 01:06:42;;;;;;;26.42;3.38;;;9.00;99.90;;;;;;5005675;28;20487;-45
2023/03/25 01:09:12;;;;;;;19.23;3.00;;;9.00;99.90;;;;;;5005342;28;20026;-48
2023/03/25 01:11:40;;;;;;;22.80;3.30;;;8.90;99.90;;;;;;5010893;28;20048;-45
2023/03/25 01:14:10;;;;;;;22.15;3.17;;;8.90;99.90;;;;;;5010625;28;20146;-49
2023/03/25 01:16:35;;;;;;;;;;;8.90;99.90;;;;;;5011064;28;20549;-46
2023/03/25 01:19:01;;;;;;;20.92;2.92;;;8.90;99.90;;;;;;5011985;28;19918;-51
2023/03/25 01:21:27;;;;;;;21.25;3.15;;;8.90;99.90;;;;;;5009674;28;20040;-44
2023/03/25 01:23:53;;;;;;;23.80;3.58;;;8.90;99.90;;;;;;5010561;28;20045;-44
2023/03/25 01:26:18;;;;;;;28.00;3.05;;;8.90;99.90;;;;;;5010427;28;20080;-47
2023/03/25 01:28:45;;;;;;;21.05;3.03;;;8.80;99.90;;;;;;5010395;28;20065;-47
2023/03/25 01:31:13;;;;;;;25.63;3.45;;;8.80;99.90;;;;;;5010442;28;20095;-45
2023/03/25 01:33:39;;;;;;;25.27;3.85;;;8.80;99.90;;;;;;5010183;28;20092;-44
2023/03/25 01:36:08;;;;;;;21.30;4.20;;;8.80;99.90;;;;;;5010708;28;20026;-44
2023/03/25 01:38:36;;;;;;;22.80;3.28;;;8.70;99.90;;;;;;5007720;28;20113;-45
2023/03/25 01:41:03;;;;;;;19.20;2.67;;;8.70;99.90;;;;;;5014602;28;20504;-48
2023/03/25 01:43:29;;;;;;;24.75;3.83;;;8.70;99.90;;;;;;5008704;28;20113;-44
2023/03/25 01:45:55;;;;;;;22.38;3.15;;;8.70;99.90;;;;;;5005602;28;20483;-47
2023/03/25 01:48:31;;;;;;;29.40;3.63;;;8.60;99.90;;;;;;5013951;28;20026;-49
2023/03/25 01:51:13;;;;;;;24.10;2.97;;;8.60;99.90;;;;;;5009810;28;20044;-48
2023/03/25 01:53:40;;;;;;;24.40;3.53;;;8.60;99.90;;;;;;5007231;28;20079;-44
2023/03/25 01:56:08;;;;;;;25.73;3.78;;;8.50;99.90;;;;;;5010119;28;20488;-46
2023/03/25 01:58:35;;;;;;;25.45;3.67;;;8.60;99.90;;;;;;5013928;28;20018;-45
2023/03/25 02:01:02;;;;;;;20.10;4.25;;;8.60;99.90;;;;;;5012623;28;20025;-52
2023/03/25 02:03:30;;;;;;;23.40;3.28;;;8.50;99.90;;;;;;5014012;28;20034;-56
2023/03/25 02:06:06;;;;;;;20.63;3.40;;;8.40;99.90;;;;;;5013943;28;20487;-55
2023/03/25 02:08:37;;;;;;;19.13;2.92;;;8.50;99.90;;;;;;5004983;28;20026;-54
2023/03/25 02:11:05;;;;;;;21.73;3.08;;;8.50;99.90;;;;;;5012437;28;20029;-44
2023/03/25 02:13:32;;;;;;;18.30;2.80;;;8.50;99.90;;;;;;5013965;28;20084;-43
2023/03/25 02:16:17;;;;;;;20.23;3.25;;;8.50;99.90;;;;;;5007117;28;20034;-58
2023/03/25 02:19:01;;;;;;;21.17;3.05;;;8.50;99.90;;;;;;5019746;28;20514;-44
2023/03/25 02:21:56;;;;;;;16.08;3.60;;;8.50;99.90;;;;;;5045388;28;20025;-43
2023/03/25 02:24:52;;;;;;;19.35;2.83;;;8.50;99.90;;;;;;5048135;28;20037;-44
2023/03/25 02:27:40;;;;;;;13.88;2.33;;;8.40;99.90;;;;;;5040707;28;20033;-43
2023/03/25 02:30:43;;;;;;;21.40;3.35;;;8.40;99.90;;;;;;5035110;28;20029;-48
2023/03/25 02:33:50;;;;;;;17.60;2.55;;;8.40;99.90;;;;;;5053212;28;20539;-47
2023/03/25 02:36:37;;;;;;;22.17;3.58;;;8.30;99.90;;;;;;4982896;28;20037;-51
2023/03/25 02:39:18;;;;;;;17.05;2.65;;;8.30;99.90;;;;;;4991431;28;20689;-47
2023/03/25 02:42:04;;;;;;;16.02;2.50;;;8.30;99.90;;;;;;5035861;28;20044;-46
2023/03/25 02:44:38;;;;;;;19.48;2.53;;;8.30;99.90;;;;;;5052734;28;20090;-48
2023/03/25 02:47:07;;;;;;;14.65;2.03;;;8.40;99.90;;;;;;5048874;28;20032;-48
2023/03/25 02:49:39;;;;;;;20.33;3.00;;;8.40;99.90;;;;;;5052712;28;20029;-48
2023/03/25 02:52:07;;;;;;;15.55;2.42;;;8.30;99.90;;;;;;5052761;28;20018;-51
2023/03/25 02:54:35;;;;;;;18.92;2.50;;;8.30;99.90;;;;;;5052922;28;20036;-47
2023/03/25 02:57:02;;;;;;;18.13;2.90;;;8.30;99.90;;;;;;5052720;28;20021;-45
2023/03/25 02:59:31;;;;;;;14.43;2.58;;;8.30;99.90;;;;;;5052900;28;20021;-55
2023/03/25 03:01:59;;;;;;;17.48;2.55;;;8.30;99.90;;;;;;5052969;28;20489;-54
2023/03/25 03:04:25;;;;;;;23.50;2.72;;;8.20;99.90;;;;;;5052417;28;20122;-46
2023/03/25 03:06:53;;;;;;;12.90;2.50;;;8.30;99.90;;;;;;5052700;28;20021;-44
2023/03/25 03:09:21;;;;;;;19.77;2.88;;;8.20;99.90;;;;;;5034477;28;20025;-46
2023/03/25 03:12:14;;;;;;;19.17;3.40;;;8.20;99.90;;;;;;5052557;28;20538;-52
2023/03/25 03:15:17;;;;;;;19.25;2.63;;;8.30;99.90;;;;;;5052202;28;20052;-49
2023/03/25 03:17:54;;;;;;;20.52;2.72;;;8.30;99.90;;;;;;5048490;28;20029;-46
2023/03/25 03:20:31;;;;;;;12.10;2.22;;;8.40;99.90;;;;;;5033467;28;20036;-48
2023/03/25 03:23:07;;;;;;;14.30;2.88;;;8.30;99.90;;;;;;5051232;28;20048;-50
2023/03/25 03:25:55;;;;;;;17.77;2.85;;;8.30;99.90;;;;;;5051338;28;20065;-46
2023/03/25 03:28:31;;;;;;;24.85;3.50;;;8.30;99.90;;;;;;5050413;28;20029;-47
2023/03/25 03:31:07;;;;;;;16.63;2.40;;;8.30;99.90;;;;;;5051188;28;20421;-44
2023/03/25 03:33:50;;;;;;;15.25;2.58;;;8.30;99.90;;;;;;5051167;28;20028;-51
2023/03/25 03:36:19;;;;;;;19.35;2.53;;;8.30;99.90;;;;;;5051205;28;20059;-50
2023/03/25 03:39:06;;;;;;;22.08;2.65;;;8.30;99.90;;;;;;5050970;28;20363;-45
2023/03/25 03:41:35;;;;;;;11.20;1.70;;;8.30;99.90;;;;;;5051139;28;20036;-53
2023/03/25 03:44:13;;;;;;;;;;;8.30;99.90;;;;;;5051323;28;20032;-52
2023/03/25 03:46:53;;;;;;;18.85;2.80;;;8.30;99.90;;;;;;5047900;28;19978;-52
2023/03/25 03:49:23;;;;;;;23.67;4.13;;;8.30;99.90;;;;;;5019634;28;20025;-44
2023/03/25 03:51:54;;;;;;;19.23;2.85;;;8.30;99.90;;;;;;5050872;28;20064;-48
2023/03/25 03:54:27;;;;;;;16.67;2.95;;;8.30;99.90;;;;;;5051005;28;20433;-52
2023/03/25 03:57:00;;;;;;;16.92;2.58;;;8.30;99.90;;;;;;5050952;28;20025;-43
2023/03/25 03:59:46;;;;;;;21.48;3.55;;;8.30;99.90;;;;;;5049187;28;20017;-44
2023/03/25 04:02:23;;;;;;;17.20;3.83;;;8.30;99.90;;;;;;5031329;28;20436;-43
2023/03/25 04:04:50;;;;;;;18.90;3.25;;;8.30;99.90;;;;;;5047926;28;20139;-43
2023/03/25 04:07:18;;;;;;;21.60;2.90;;;8.30;99.90;;;;;;5048848;28;20028;-45
2023/03/25 04:10:13;;;;;;;23.80;3.70;;;8.30;99.90;;;;;;5050565;28;20029;-46
2023/03/25 04:12:45;;;;;;;17.58;2.00;;;8.40;99.90;;;;;;5048862;28;20044;-52
2023/03/25 04:15:12;;;;;;;17.52;3.38;;;8.40;99.90;;;;;;5050582;28;20021;-47
2023/03/25 04:17:38;;;;;;;17.23;3.70;;;8.40;99.90;;;;;;5049438;28;20512;-44
2023/03/25 04:20:10;;;;;;;15.55;2.42;;;8.40;99.90;;;;;;5012817;28;1095461;-44
2023/03/25 04:22:38;;;;;;;22.67;3.33;;;8.40;99.90;;;;;;5039330;28;20033;-44
2023/03/25 04:25:07;;;;;;;23.67;4.05;;;8.30;99.90;;;;;;5051029;28;20033;-43
2023/03/25 04:27:36;;;;;;;18.15;2.53;;;8.40;99.90;;;;;;5045350;28;20120;-52
2023/03/25 04:30:03;;;;;;;19.27;3.05;;;8.40;99.90;;;;;;5051181;28;20051;-47
2023/03/25 04:32:30;;;;;;;18.08;2.55;;;8.40;99.90;;;;;;5038422;28;20033;-50
2023/03/25 04:34:56;;;;;;;20.13;3.60;;;8.40;99.90;;;;;;5050514;28;20029;-50
2023/03/25 04:37:24;;;;;;;18.17;2.97;;;8.40;99.90;;;;;;5040519;28;20068;-56
2023/03/25 04:39:50;;;;;;;17.17;2.95;;;8.40;99.90;;;;;;5048497;28;20340;-48
2023/03/25 04:42:16;;;;;;;19.23;3.20;;;8.40;99.90;;;;;;5049317;28;20507;-50
2023/03/25 04:44:44;;;;;;;19.45;2.80;;;8.50;99.90;;;;;;5050705;28;20119;-45
2023/03/25 04:47:13;;;;;;;19.00;3.03;;;8.50;99.90;;;;;;5048011;28;20100;-46
2023/03/25 04:49:43;;;;;;;;;;;8.50;99.90;;;;;;5050981;28;20127;-47
2023/03/25 04:52:10;;;;;;;15.13;2.45;;;8.40;99.90;;;;;;5047559;28;19909;-47
2023/03/25 04:54:37;;;;;;;21.83;3.47;;;8.40;99.90;;;;;;5051002;28;20028;-52
2023/03/25 04:57:03;;;;;;;16.63;3.08;;;8.40;99.90;;;;;;5028773;28;20485;-47
2023/03/25 04:59:28;;;;;;;17.15;2.83;;;8.40;99.90;;;;;;5050527;28;20025;-53
2023/03/25 05:01:54;;;;;;;18.45;2.70;;;8.40;99.90;;;;;;5050471;28;20025;-46
2023/03/25 05:04:20;;;;;;;19.70;3.13;;;8.40;99.90;;;;;;5050477;28;20033;-46
2023/03/25 05:06:49;;;;;;;21.70;2.88;;;8.50;99.90;;;;;;5050542;28;20016;-51
2023/03/25 05:09:23;;;;;;;18.45;2.60;;;8.50;99.90;;;;;;5050625;28;20033;-45
2023/03/25 05:11:51;;;;;;;17.92;2.65;;;8.50;99.90;;;;;;5050350;28;20397;-50
2023/03/25 05:14:19;;;;;;;22.83;2.95;;;8.50;99.90;;;;;;5049504;28;20513;-47
2023/03/25 05:16:46;;;;;;;26.75;2.85;;;8.60;99.90;;;;;;5050371;28;20025;-44
2023/03/25 05:19:13;;;;;;;16.15;2.92;;;8.60;99.90;;;;;;5050297;28;20053;-54
2023/03/25 05:21:42;;;;;;;25.95;2.95;;;8.70;99.90;;;;;;5050565;28;20083;-49
2023/03/25 05:24:10;;;;;;;19.37;2.57;;;8.70;99.90;;;;;;5050234;28;20079;-48
2023/03/25 05:26:38;;;;;;;24.35;3.63;;;8.60;99.90;;;;;;5046048;28;20263;-47
2023/03/25 05:29:09;;;;;;;24.63;2.97;;;8.60;99.90;;;;;;5045766;28;20033;-50
2023/03/25 05:31:35;;;;;;;21.25;3.35;;;8.60;99.90;;;;;;5050666;28;20028;-49
2023/03/25 05:34:05;;;;;;;24.50;4.45;;;8.70;99.90;;;;;;5050054;28;20474;-50
2023/03/25 05:36:31;;;;;;;22.88;4.38;;;8.70;99.90;;;;;;5050355;28;20036;-45
2023/03/25 05:38:58;;;;;;;18.05;2.45;;;8.70;99.90;;;;;;5016087;28;20025;-46
2023/03/25 05:41:31;;;;;;;24.55;3.42;;;8.70;99.90;;;;;;5049987;28;20227;-45
2023/03/25 05:43:59;;;;;;;20.58;4.00;;;8.70;99.90;;;;;;5032236;28;20086;-49
2023/03/25 05:46:25;;;;;;;16.48;3.05;;;8.70;99.90;;;;;;5050134;28;20028;-48
2023/03/25 05:48:51;;;;;;;24.90;3.72;;;8.70;99.90;;;;;;5050146;28;20051;-44
2023/03/25 05:51:20;;;;;;;29.30;3.88;;;8.60;99.90;;;;;;5050188;28;20098;-46
2023/03/25 05:53:48;;;;;;;18.70;3.28;;;8.60;99.90;;;;;;5050028;28;20055;-45
2023/03/25 05:56:16;;;;;;;25.00;3.78;;;8.60;99.90;;;;;;5031186;28;20029;-48
2023/03/25 05:58:42;;;;;;;19.13;4.13;;;8.60;99.90;;;;;;5037892;28;20430;-44
2023/03/25 06:01:10;;;;;;;24.67;3.30;;;8.70;99.90;;;;;;5049657;28;20553;-48
2023/03/25 06:03:37;;;;;;;20.20;3.03;;;8.80;99.90;;;;;;5049995;28;20040;-44
2023/03/25 06:06:04;;;;;;;20.60;3.80;;;8.90;99.90;;;;;;5050051;28;20036;-45
2023/03/25 06:08:30;;;;;;;16.73;2.90;;;9.00;99.90;;;;;;5049601;28;20033;-45
2023/03/25 06:10:59;;;;;;;26.98;4.32;;;9.00;99.90;;;;;;5032009;28;20052;-45
2023/03/25 06:13:26;;;;;;;20.50;3.10;;;9.00;99.90;;;;;;5049936;28;20029;-47
2023/03/25 06:15:55;;;;;;;25.02;3.83;;;9.10;99.90;;;;;;5038978;28;20017;-44
2023/03/25 06:18:24;;;;;;;21.55;3.38;;;9.10;99.90;;;;;;5023675;28;20536;-46
2023/03/25 06:20:52;;;;;;;25.02;3.28;;;9.10;99.90;;;;;;5040124;28;20071;-48
2023/03/25 06:23:21;;;;;;;27.02;3.72;;;9.10;99.90;;;;;;5042888;28;20099;-49
2023/03/25 06:25:48;;;;;;;27.67;3.90;;;9.10;99.90;;;;;;5044095;28;20030;-46
2023/03/25 06:28:17;;;;;;;26.50;3.80;;;9.10;99.90;;;;;;5044686;28;20021;-45
2023/03/25 06:30:43;;;;;;;27.35;4.25;;;9.20;99.90;;;;;;5046457;28;20040;-48
2023/03/25 06:33:09;;;;;;;20.15;3.60;;;9.20;99.90;;;;;;5023078;28;20032;-44
2023/03/25 06:35:35;;;;;;;26.02;3.42;;;9.30;99.90;;;;;;5047679;28;20025;-44
2023/03/25 06:38:01;;;;;;;27.25;4.60;;;9.30;99.90;;;;;;5041772;28;20097;-50
2023/03/25 06:40:27;;;;;;;20.52;2.85;;;9.30;99.90;;;;;;5047397;28;20036;-44
2023/03/25 06:42:52;;;;;;;28.95;4.15;;;9.30;99.90;;;;;;5045119;28;20044;-46
2023/03/25 06:45:18;;;;;;;25.75;4.15;;;9.30;99.90;;;;;;5047378;28;20037;-46
2023/03/25 06:47:44;;;;;;;28.77;5.32;;;9.40;99.90;;;;;;5046535;28;20389;-52
2023/03/25 06:50:10;;;;;;;21.83;3.42;;;9.30;99.90;;;;;;5047927;28;20022;-46
2023/03/25 06:52:35;;;;;;;25.83;3.13;;;9.30;99.90;;;;;;5057772;28;20390;-44
2023/03/25 06:55:01;;;;;;;32.95;3.63;;;9.40;99.90;;;;;;5049030;28;20114;-51
2023/03/25 06:57:27;;;;;;;19.02;2.85;;;9.40;99.90;;;;;;5051498;28;20482;-56
2023/03/25 06:59:53;;;;;;;21.85;3.13;;;9.40;99.90;;;;;;5043721;28;20024;-48
2023/03/25 07:02:18;;;;;;;23.20;3.30;;;9.40;99.90;;;;;;5045265;28;20029;-49
2023/03/25 07:04:44;;;;;;;23.38;3.38;;;9.40;99.90;;;;;;5045331;28;20520;-44
2023/03/25 07:07:09;;;;;;;28.13;3.20;;;9.40;99.90;;;;;;5044889;28;20063;-50
2023/03/25 07:09:38;;;;;;;20.38;3.42;;;9.60;99.90;;;;;;5052677;28;20025;-44
2023/03/25 07:12:04;;;;;;;15.98;3.40;;;9.80;99.90;;;;;;5052674;28;20467;-45
2023/03/25 07:14:29;;;;;;;20.63;3.08;;;9.80;99.90;;;;;;5052572;28;20083;-45
2023/03/25 07:16:55;;;;;;;26.27;3.65;;;9.90;99.90;;;;;;5052640;28;20017;-49
2023/03/25 07:19:21;;;;;;;21.75;3.58;;;10.00;99.90;;;;;;5052458;28;20128;-44
2023/03/25 07:21:46;;;;;;;32.92;4.15;;;10.10;99.90;;;;;;5052574;28;20033;-47
2023/03/25 07:24:12;;;;;;;23.98;2.80;;;10.00;99.90;;;;;;5052340;28;20375;-44
2023/03/25 07:26:38;;;;;;;16.77;3.28;;;9.90;99.90;;;;;;5048842;28;20032;-45
2023/03/25 07:29:04;;;;;;;18.60;4.15;;;9.90;99.90;;;;;;5048230;28;20526;-46
2023/03/25 07:31:30;;;;;;;25.10;3.55;;;9.90;99.90;;;;;;5051625;28;20021;-46
2023/03/25 07:33:59;;;;;;;17.92;3.30;;;9.80;99.90;;;;;;5047044;28;20047;-47
2023/03/25 07:36:25;;;;;;;24.07;3.60;;;9.80;99.90;;;;;;5041297;28;20124;-52
2023/03/25 07:38:52;;;;;;;28.70;5.03;;;9.80;99.90;;;;;;5047179;28;20103;-50
2023/03/25 07:41:18;;;;;;;17.77;3.13;;;9.80;99.90;;;;;;5041973;28;20076;-45
2023/03/25 07:43:44;;;;;;;24.30;3.10;;;9.80;99.90;;;;;;5046037;28;20033;-47
2023/03/25 07:46:11;;;;;;;18.65;3.00;;;9.80;99.90;;;;;;5048587;28;20025;-47
2023/03/25 07:48:36;;;;;;;25.15;4.40;;;9.80;99.90;;;;;;5042533;28;20025;-51
2023/03/25 07:51:02;;;;;;;18.13;2.70;;;9.90;99.90;;;;;;5047510;28;20091;-48
2023/03/25 07:53:28;;;;;;;17.73;3.03;;;10.00;99.90;;;;;;5031389;28;20040;-45
2023/03/25 07:55:54;;;;;;;17.67;2.55;;;10.20;99.90;;;;;;5032737;28;20083;-45
2023/03/25 07:58:20;;;;;;;18.92;2.75;;;10.30;99.90;;;;;;5050978;28;20133;-44
2023/03/25 08:00:46;;;;;;;22.25;3.33;;;10.30;99.90;;;;;;5050750;28;20552;-50
2023/03/25 08:03:13;;;;;;;13.00;2.25;;;10.30;99.90;;;;;;5033562;28;20025;-45
2023/03/25 08:05:46;;;;;;;15.70;2.28;;;10.30;99.90;;;;;;5051576;28;20060;-46
2023/03/25 08:08:13;;;;;;;16.63;2.90;;;10.30;99.90;;;;;;5051646;28;20029;-54
2023/03/25 08:10:42;;;;;;;22.58;3.08;;;10.40;99.90;;;;;;5050386;28;20100;-54
2023/03/25 08:13:10;;;;;;;15.15;2.13;;;10.60;99.90;;;;;;5033987;28;20040;-47
2023/03/25 08:15:37;;;;;;;17.67;2.58;;;10.70;99.90;;;;;;5048899;28;20025;-46
2023/03/25 08:18:04;;;;;;;16.40;2.58;;;10.90;99.90;;;;;;5035163;28;20045;-45
2023/03/25 08:20:29;;;;;;;14.05;2.75;;;11.00;99.90;;;;;;5042017;28;20032;-45
2023/03/25 08:22:57;;;;;;;16.50;2.03;;;11.20;99.90;;;;;;5036977;28;20021;-52
2023/03/25 08:25:23;;;;;;;15.32;2.20;;;11.40;99.90;;;;;;5040478;28;20120;-48
2023/03/25 08:27:49;;;;;;;18.15;3.63;;;11.20;99.90;;;;;;5043424;28;20025;-49
2023/03/25 08:30:16;;;;;;;15.57;2.40;;;11.10;99.90;;;;;;5047016;28;20029;-51
2023/03/25 08:32:44;;;;;;;18.70;2.88;;;11.10;99.90;;;;;;5033316;28;20497;-47
2023/03/25 08:35:11;;;;;;;10.82;2.30;;;11.00;99.90;;;;;;5051303;28;20115;-50
2023/03/25 08:37:37;;;;;;;14.43;2.55;;;11.10;99.90;;;;;;5050905;28;20032;-50
2023/03/25 08:40:10;;;;;;;11.88;2.53;;;11.10;99.90;;;;;;5050298;28;20033;-44
2023/03/25 08:42:36;;;;;;;15.80;2.20;;;11.30;99.90;;;;;;5050612;28;20462;-45
2023/03/25 08:45:03;;;;;;;13.55;2.22;;;11.40;99.90;;;;;;5050850;28;20145;-46
2023/03/25 08:47:30;;;;;;;16.60;2.33;;;11.40;99.90;;;;;;5032847;28;20024;-44
2023/03/25 08:49:56;;;;;;;17.45;2.33;;;11.40;99.90;;;;;;5050853;28;20115;-47
2023/03/25 08:52:22;;;;;;;15.02;2.40;;;11.30;99.90;;;;;;5032737;28;20029;-46
2023/03/25 08:54:47;;;;;;;14.90;2.47;;;11.30;99.90;;;;;;5050696;28;20028;-51
2023/03/25 08:57:13;;;;;;;20.92;2.70;;;11.40;99.90;;;;;;5040294;28;20034;-54
2023/03/25 08:59:39;;;;;;;15.73;2.20;;;11.40;99.90;;;;;;5049054;28;20470;-45
2023/03/25 09:02:05;;;;;;;12.30;2.90;;;11.40;99.90;;;;;;5032761;28;20081;-45
2023/03/25 09:04:31;;;;;;;14.57;2.53;;;11.50;99.90;;;;;;5046964;28;20036;-45
2023/03/25 09:06:57;;;;;;;13.32;2.13;;;11.50;99.90;;;;;;5039005;28;20067;-47
2023/03/25 09:09:23;;;;;;;10.80;1.63;;;12.60;99.90;;;;;;5032608;28;20036;-44
2023/03/25 09:11:49;;;;;;;7.72;1.67;;;13.90;99.90;;;;;;5050342;28;20036;-52
2023/03/25 09:14:14;;;;;;;9.10;2.00;;;14.90;99.90;;;;;;5050447;28;20021;-47
2023/03/25 09:16:40;;;;;;;13.57;1.83;;;15.80;98.20;;;;;;5050340;28;20013;-44
2023/03/25 09:19:07;;;;;;;12.27;1.88;;;15.50;94.30;;;;;;5018406;28;20065;-44
2023/03/25 09:21:32;;;;;;;14.48;2.50;;;14.70;96.20;;;;;;5010700;28;20101;-51
2023/03/25 09:23:58;;;;;;;10.32;2.05;;;15.00;95.80;;;;;;5010489;28;20113;-48
2023/03/25 09:26:25;;;;;;;8.10;1.67;;;14.90;95.80;;;;;;5006457;28;20084;-45
2023/03/25 09:28:50;;;;;;;13.05;2.40;;;14.40;96.50;;;;;;5003530;28;20109;-48
2023/03/25 09:31:17;;;;;;;8.10;2.03;;;13.60;96.90;;;;;;5010746;28;20460;-51
2023/03/25 09:33:43;;;;;;;11.25;1.65;;;12.90;98.50;;;;;;5010467;28;20506;-53
2023/03/25 09:36:08;;;;;;;7.45;1.45;;;12.50;98.50;;;;;;5010578;28;20026;-53
2023/03/25 09:38:34;;;;;;;8.15;1.38;;;12.10;98.90;;;;;;5010552;28;20025;-46
2023/03/25 09:41:15;;;;;;;16.08;2.38;;;12.20;99.20;;;;;;5010566;28;20029;-52
2023/03/25 09:44:03;;;;;;;12.27;1.88;;;12.30;99.20;;;;;;5009967;28;20402;-49
2023/03/25 09:46:29;;;;;;;12.57;1.92;;;13.30;98.20;;;;;;5010348;28;20069;-47
2023/03/25 09:48:56;;;;;;;6.70;1.08;;;14.00;95.80;;;;;;5009852;28;20041;-43
2023/03/25 09:51:28;;;;;;;7.18;1.30;;;14.10;95.90;;;;;;5010231;28;20041;-46
2023/03/25 09:54:32;;;;;;;9.13;1.77;;;13.50;96.10;;;;;;5010493;28;20022;-45
2023/03/25 09:57:05;;;;;;;16.52;2.50;;;13.40;97.20;;;;;;4947367;29;20031;-45
2023/03/25 09:59:46;;;;;;;10.32;1.73;;;13.50;96.50;;;;;;4950647;28;20129;-45
2023/03/25 10:02:43;;;;;;;7.55;1.30;;;13.30;96.50;;;;;;4987016;28;20471;-48
2023/03/25 10:05:25;;;;;;;9.95;1.73;;;13.50;96.90;;;;;;5013933;28;20073;-49
2023/03/25 10:07:50;;;;;;;10.80;1.73;;;13.80;96.40;;;;;;5011147;28;20018;-45
2023/03/25 10:10:28;;;;;;;8.70;1.55;;;13.60;96.50;;;;;;5012486;28;20454;-44
2023/03/25 10:13:16;;;;;;;7.78;1.60;;;13.50;96.60;;;;;;5012699;28;20048;-44
2023/03/25 10:16:12;;;;;;;9.85;1.38;;;13.70;97.60;;;;;;5013926;28;20068;-51
2023/03/25 10:18:55;;;;;;;10.85;2.00;;;13.80;95.60;;;;;;5021321;28;20056;-44
2023/03/25 10:21:40;;;;;;;8.23;1.35;;;14.00;95.80;;;;;;5051626;28;20033;-49
2023/03/25 10:24:38;;;;;;;9.70;1.65;;;14.10;94.90;;;;;;5032902;28;20066;-44
2023/03/25 10:27:22;;;;;;;13.43;1.50;;;13.60;96.00;;;;;;5048058;28;20048;-47
2023/03/25 10:30:11;;;;;;;8.23;1.63;;;13.40;96.70;;;;;;5038981;28;20045;-54
2023/03/25 10:32:50;;;;;;;7.93;1.35;;;13.40;96.10;;;;;;5046803;28;20079;-48
2023/03/25 10:35:21;;;;;;;9.00;1.70;;;13.40;97.40;;;;;;5036739;28;20490;-45
2023/03/25 10:37:50;;;;;;;9.30;2.17;;;13.60;96.30;;;;;;5038613;28;20751;-49
2023/03/25 10:40:26;;;;;;;7.97;1.25;;;13.40;96.20;;;;;;5036712;28;20022;-44
2023/03/25 10:43:00;;;;;;;10.77;1.40;;;13.40;96.40;;;;;;5036694;28;20394;-47
2023/03/25 10:45:27;;;;;;;8.15;1.48;;;13.30;96.60;;;;;;5049996;28;20517;-47
2023/03/25 10:48:03;;;;;;;13.75;2.00;;;13.10;97.40;;;;;;5046841;28;20057;-45
2023/03/25 10:50:29;;;;;;;9.95;1.63;;;13.00;98.00;;;;;;5044139;28;20025;-45
2023/03/25 10:52:56;;;;;;;9.10;1.95;;;12.90;98.20;;;;;;5027701;28;20411;-46
2023/03/25 10:55:31;;;;;;;11.25;1.58;;;13.10;98.10;;;;;;5049806;28;20045;-45
2023/03/25 10:57:57;;;;;;;9.57;2.08;;;13.20;97.20;;;;;;5051044;28;20112;-46
2023/03/25 11:00:29;;;;;;;12.07;1.80;;;13.50;97.70;;;;;;5045114;28;20375;-46
2023/03/25 11:02:55;;;;;;;10.60;1.70;;;13.70;96.80;;;;;;5039835;28;20499;-49
2023/03/25 11:05:26;;;;;;;12.30;1.85;;;14.60;96.60;;;;;;5041422;28;20033;-47
2023/03/25 11:08:04;;;;;;;10.88;1.77;;;14.70;95.00;;;;;;5030712;28;20540;-50
2023/03/25 11:10:33;;;;;;;8.65;1.50;;;14.20;94.10;;;;;;5034378;28;20379;-47
2023/03/25 11:13:02;;;;;;;7.83;1.83;;;14.00;94.40;;;;;;5047751;28;20398;-49
2023/03/25 11:15:32;;;;;;;8.25;1.33;;;14.00;94.90;;;;;;5038320;28;20021;-49
2023/03/25 11:17:59;;;;;;;;;;;13.70;94.80;;;;;;5047144;28;20052;-47
2023/03/25 11:20:35;;;;;;;6.85;1.05;;;13.50;95.00;;;;;;5049659;28;19904;-52
2023/03/25 11:23:21;;;;;;;8.38;1.48;;;13.30;95.60;;;;;;5047291;28;20053;-52
2023/03/25 11:25:47;;;;;;;5.32;1.08;;;13.50;95.60;;;;;;5031176;28;20092;-51
2023/03/25 11:28:36;;;;;;;7.18;1.48;;;13.70;95.90;;;;;;5049935;28;20033;-50
2023/03/25 11:31:16;;;;;;;11.00;1.45;;;13.80;95.90;;;;;;5038234;28;20029;-50
2023/03/25 11:33:45;;;;;;;7.78;1.42;;;13.90;94.60;;;;;;5049323;28;20033;-45
2023/03/25 11:36:18;;;;;;;8.85;1.48;;;13.80;95.00;;;;;;5046646;28;20017;-51
2023/03/25 11:38:49;;;;;;;10.00;1.60;;;14.00;95.40;;;;;;5049333;28;20037;-50
2023/03/25 11:41:15;;;;;;;14.15;1.83;;;14.40;94.50;;;;;;5048828;28;20056;-47
2023/03/25 11:43:41;;;;;;;9.52;1.60;;;14.40;94.40;;;;;;5050268;28;20048;-45
2023/03/25 11:46:19;;;;;;;5.53;1.58;;;14.50;93.60;;;;;;5050304;28;20025;-48
2023/03/25 11:48:46;;;;;;;8.95;1.92;;;14.90;93.90;;;;;;5051896;28;20087;-44
2023/03/25 11:51:19;;;;;;;7.38;1.67;;;15.00;92.10;;;;;;5051932;28;20028;-47
2023/03/25 11:53:55;;;;;;;9.18;1.60;;;15.60;93.90;;;;;;5046098;28;20104;-47
2023/03/25 11:56:27;;;;;;;11.07;1.80;;;16.40;90.10;;;;;;5051733;28;20033;-48
2023/03/25 11:58:58;;;;;;;8.20;1.80;;;15.80;90.20;;;;;;5051543;28;20017;-47
2023/03/25 12:01:39;;;;;;;8.70;1.98;;;15.80;90.90;;;;;;5051682;28;20025;-50
2023/03/25 12:04:27;;;;;;;11.38;2.53;;;16.20;87.90;;;;;;5051400;28;20029;-53
2023/03/25 12:07:13;;;;;;;9.02;1.75;;;15.90;90.90;;;;;;5049081;28;20486;-51
2023/03/25 12:09:53;;;;;;;6.30;1.60;;;16.70;89.80;;;;;;5051743;28;20032;-49
2023/03/25 12:12:31;;;;;;;8.50;1.40;;;18.50;84.20;;;;;;5051276;28;20056;-48
2023/03/25 12:15:12;;;;;;;6.05;1.58;;;18.90;79.00;;;;;;5033429;28;20021;-47
2023/03/25 12:18:31;;;;;;;7.78;1.25;;;18.30;77.40;;;;;;5050870;28;20092;-47
2023/03/25 12:21:06;;;;;;;9.50;1.40;;;18.20;78.40;;;;;;4974128;28;20131;-45
2023/03/25 12:23:40;;;;;;;9.45;1.95;;;16.70;78.60;;;;;;5021559;28;20037;-46
2023/03/25 12:26:22;;;;;;;22.15;3.30;;;16.10;84.50;;;;;;5029701;28;20045;-45
2023/03/25 12:28:53;;;;;;;17.73;3.17;;;15.60;92.20;;;;;;5029312;28;20099;-49
2023/03/25 12:31:56;;;;;;;15.43;2.55;;;15.40;93.50;;;;;;5029523;28;20049;-46
2023/03/25 12:34:36;;;;;;;14.55;3.33;;;16.40;92.20;;;;;;5029655;28;20028;-46
2023/03/25 12:37:33;;;;;;;14.02;3.28;;;17.70;89.60;;;;;;5022950;28;20025;-45
2023/03/25 12:40:37;;;;;;;21.55;3.15;;;17.30;90.00;;;;;;5035062;28;20108;-44
2023/03/25 12:43:19;;;;;;;15.38;2.15;;;15.80;94.10;;;;;;4999409;28;20029;-44
2023/03/25 12:46:08;;;;;;;12.75;1.88;;;14.70;96.60;;;;;;5050621;28;20044;-45
2023/03/25 12:48:49;;;;;;;8.90;1.83;;;15.80;96.80;;;;;;5016987;28;20116;-49
2023/03/25 12:51:33;;;;;;;12.20;2.40;;;17.60;95.30;;;;;;5045410;28;20028;-48
2023/03/25 12:54:26;;;;;;;10.57;2.33;;;18.40;92.20;;;;;;5050490;28;20489;-48
2023/03/25 12:57:01;;;;;;;11.00;2.17;;;18.70;90.10;;;;;;5049479;28;20041;-54
2023/03/25 12:59:59;;;;;;;9.35;2.25;;;19.10;88.90;;;;;;5029389;28;20028;-46
2023/03/25 13:02:51;;;;;;;13.18;2.05;;;18.60;87.00;;;;;;5046895;28;20033;-44
2023/03/25 13:05:25;;;;;;;8.18;1.77;;;18.10;84.80;;;;;;5032477;28;20045;-45
2023/03/25 13:08:17;;;;;;;9.55;1.98;;;17.80;84.30;;;;;;5042407;28;20021;-46